ESST/TYF METAR and TAF weather

Enter ICAO airport designator
Station Type Date Time Source
ESST METAR 2021/07/26 16:50 UTC NOAA

ESST 261650Z AUTO 18005KT 140V200 6000 RA FEW009/// OVC070/// 18/17 Q1016 RESHRA


Station Type Date Time Source
ESST Decoded METAR 2021/07/26 16:50 UTC NOAA

Station name not available
Jul 26, 2021 - 12:50 PM EDT / 2021.07.26 1650 UTC
Wind: from the S (180 degrees) at 6 MPH (5 KT) (direction variable):0
Visibility: 3 mile(s):0
Sky conditions: overcast
Weather: rain
Temperature: 64 F (18 C)
Dew Point: 62 F (17 C)
Relative Humidity: 93%
Pressure (altimeter): 30.00 in. Hg (1016 hPa)
ob: ESST 261650Z AUTO 18005KT 140V200 6000 RA FEW009/// OVC070/// 18/17 Q1016 RESHRA
cycle: 17

Station Type Date Time Source
ESST TAF UTC NOAA

Error!

Example: see airport list